Time;durP1;ratioP1;P1;durP2;ratioP2;P2;SDS_P1;SDS_P2;PMS_P1;PMS_P2;Temp;Humidity;BMP_temperature;BMP_pressure;BME280_temperature;BME280_humidity;BME280_pressure;Samples;Min_cycle;Max_cycle;Signal;HPM_P1;HPM_P2
2022/06/13 00:01:24;;;;;;;6.88;3.60;;;;;;;17.29;100.00;96368.19;5003351;28;20061;-80
2022/06/13 00:03:51;;;;;;;5.38;3.10;;;;;;;17.32;100.00;96381.91;5017207;28;20108;-80
2022/06/13 00:06:17;;;;;;;8.25;3.38;;;;;;;17.25;100.00;96418.28;5000406;28;20040;-79
2022/06/13 00:08:43;;;;;;;7.22;3.70;;;;;;;17.11;100.00;96453.78;4998111;28;20014;-82
2022/06/13 00:11:13;;;;;;;10.27;4.68;;;;;;;17.06;100.00;96467.63;5013185;28;20037;-81
2022/06/13 00:13:42;;;;;;;5.97;3.75;;;;;;;16.86;100.00;96493.22;5025895;28;20034;-79
2022/06/13 00:16:09;;;;;;;6.03;3.80;;;;;;;16.76;100.00;96498.84;5021552;28;20037;-80
2022/06/13 00:18:36;;;;;;;9.90;3.50;;;;;;;16.46;100.00;96517.56;5014266;28;20065;-79
2022/06/13 00:21:01;;;;;;;7.85;2.97;;;;;;;16.19;100.00;96523.59;5037279;28;20030;-79
2022/06/13 00:23:27;;;;;;;7.37;3.30;;;;;;;16.23;100.00;96520.41;5007970;28;20026;-80
2022/06/13 00:25:53;;;;;;;4.63;2.70;;;;;;;16.19;100.00;96526.25;5024670;28;20384;-79
2022/06/13 00:28:19;;;;;;;9.87;3.13;;;;;;;16.21;100.00;96538.31;5009989;28;20092;-79
2022/06/13 00:30:45;;;;;;;8.37;2.97;;;;;;;16.07;100.00;96535.72;5015344;28;20120;-79
2022/06/13 00:33:10;;;;;;;6.53;2.57;;;;;;;15.91;100.00;96536.75;5009036;28;20038;-79
2022/06/13 00:35:36;;;;;;;6.87;3.20;;;;;;;15.79;100.00;96534.56;5014349;28;20040;-79
2022/06/13 00:38:02;;;;;;;6.17;2.93;;;;;;;15.84;100.00;96533.19;5014691;28;20061;-79
2022/06/13 00:40:31;;;;;;;7.80;3.37;;;;;;;15.67;100.00;96525.41;5014302;28;20034;-79
2022/06/13 00:42:56;;;;;;;6.57;3.07;;;;;;;15.73;100.00;96513.28;5007446;28;20133;-79
2022/06/13 00:45:31;;;;;;;8.73;3.83;;;;;;;15.81;100.00;96493.78;5013714;28;20050;-79
2022/06/13 00:47:56;;;;;;;6.00;2.93;;;;;;;15.76;100.00;96460.69;5026266;28;20081;-79
2022/06/13 00:50:35;;;;;;;6.80;2.77;;;;;;;15.64;100.00;96425.00;5022554;28;20404;-79
2022/06/13 00:53:11;;;;;;;4.77;2.47;;;;;;;15.73;100.00;96425.78;5015731;28;20044;-80
2022/06/13 00:55:44;;;;;;;8.17;3.60;;;;;;;15.77;100.00;96430.50;5014110;28;20034;-79
2022/06/13 00:58:12;;;;;;;6.50;3.10;;;;;;;15.81;100.00;96430.94;4997610;28;20034;-79
2022/06/13 01:00:38;;;;;;;6.50;3.37;;;;;;;15.94;100.00;96430.28;5011828;28;20046;-80
2022/06/13 01:03:05;;;;;;;5.87;2.83;;;;;;;16.06;100.00;96444.66;5017462;28;20044;-79
2022/06/13 01:05:35;;;;;;;6.93;3.47;;;;;;;16.03;100.00;96445.06;5021364;28;20038;-79
2022/06/13 01:08:04;;;;;;;7.40;3.20;;;;;;;16.01;100.00;96437.28;5016060;28;20105;-80
2022/06/13 01:13:16;;;;;;;5.93;3.00;;;;;;;15.78;100.00;96421.53;5031497;28;20034;-80
2022/06/13 01:16:14;;;;;;;8.33;3.20;;;;;;;15.61;100.00;96414.78;5029165;28;20028;-80
2022/06/13 01:18:58;;;;;;;8.47;2.50;;;;;;;15.51;100.00;96388.56;5008211;28;20749;-80
2022/06/13 01:21:50;;;;;;;5.80;3.10;;;;;;;15.53;100.00;96383.09;5007362;28;20033;-80
2022/06/13 01:24:47;;;;;;;4.80;2.87;;;;;;;15.41;100.00;96377.44;5013203;28;20037;-80
2022/06/13 01:27:41;;;;;;;4.17;2.50;;;;;;;15.31;100.00;96361.81;5015677;28;20030;-80
2022/06/13 01:30:33;;;;;;;5.50;2.60;;;;;;;15.25;100.00;96361.75;5021776;28;20038;-79
2022/06/13 01:33:06;;;;;;;5.03;2.77;;;;;;;15.23;100.00;96354.00;5025161;28;20045;-80
2022/06/13 01:35:42;;;;;;;6.05;2.90;;;;;;;15.21;100.00;96350.69;5028310;28;20037;-80
2022/06/13 01:38:32;;;;;;;5.73;3.10;;;;;;;15.17;100.00;96357.38;5012696;28;20503;-79
2022/06/13 01:41:32;;;;;;;6.13;2.97;;;;;;;15.09;100.00;96353.00;5028933;28;20037;-80
2022/06/13 01:44:07;;;;;;;8.13;4.37;;;;;;;15.02;100.00;96361.84;5022960;28;20054;-80
2022/06/13 01:46:38;;;;;;;7.20;4.10;;;;;;;15.09;100.00;96368.09;5016049;28;20033;-79
2022/06/13 01:49:27;;;;;;;9.63;4.23;;;;;;;15.05;100.00;96382.69;5013555;28;20515;-80
2022/06/13 01:52:04;;;;;;;6.50;3.77;;;;;;;15.10;100.00;96388.25;4991961;28;20036;-80
2022/06/13 01:54:52;;;;;;;7.53;3.67;;;;;;;15.14;100.00;96383.41;4995861;28;20036;-80
2022/06/13 01:57:27;;;;;;;9.30;3.77;;;;;;;15.13;100.00;96387.09;5009367;28;20035;-80
2022/06/13 02:00:10;;;;;;;5.23;3.47;;;;;;;15.27;100.00;96384.41;5006645;28;20030;-80
2022/06/13 02:02:48;;;;;;;7.90;3.60;;;;;;;15.21;100.00;96392.28;5014498;28;20042;-80
2022/06/13 02:05:33;;;;;;;6.63;3.57;;;;;;;15.15;100.00;96385.88;5019005;28;20577;-79
2022/06/13 02:08:11;;;;;;;5.97;3.47;;;;;;;15.30;100.00;96391.16;5019894;28;20030;-79
2022/06/13 02:10:45;;;;;;;7.07;4.10;;;;;;;15.35;100.00;96395.91;5013571;28;20041;-80
2022/06/13 02:13:18;;;;;;;7.00;3.43;;;;;;;15.21;100.00;96397.56;5018363;28;20637;-80
2022/06/13 02:15:49;;;;;;;7.00;3.75;;;;;;;15.07;100.00;96407.16;5013503;28;20030;-79
2022/06/13 02:18:27;;;;;;;8.13;3.73;;;;;;;15.21;100.00;96424.88;5028664;28;20088;-80
2022/06/13 02:20:58;;;;;;;8.07;4.30;;;;;;;15.13;100.00;96417.03;5024352;28;20113;-79
2022/06/13 02:23:28;;;;;;;7.13;3.93;;;;;;;15.07;100.00;96412.47;5014519;28;20522;-80
2022/06/13 02:26:19;;;;;;;6.43;4.07;;;;;;;14.94;100.00;96417.56;5015373;28;20038;-80
2022/06/13 02:28:52;;;;;;;5.93;3.50;;;;;;;14.91;100.00;96410.81;4993043;28;20038;-80
2022/06/13 02:31:32;;;;;;;6.37;4.13;;;;;;;14.96;100.00;96405.00;5013120;28;20029;-81
2022/06/13 02:34:06;;;;;;;8.60;4.50;;;;;;;14.95;100.00;96392.72;5000921;28;20045;-79
2022/06/13 02:36:48;;;;;;;10.33;4.00;;;;;;;14.89;100.00;96393.44;5026938;28;20030;-79
2022/06/13 02:39:21;;;;;;;9.23;3.53;;;;;;;14.96;100.00;96400.50;5027553;28;20061;-80
2022/06/13 02:42:02;;;;;;;5.57;3.10;;;;;;;14.90;100.00;96406.53;5017201;28;20099;-80
2022/06/13 02:44:49;;;;;;;5.30;3.17;;;;;;;14.92;100.00;96419.56;4998424;28;20041;-79
2022/06/13 02:47:37;;;;;;;8.10;4.10;;;;;;;14.86;100.00;96421.13;5037556;28;20037;-81
2022/06/13 02:50:30;;;;;;;6.60;3.23;;;;;;;14.86;100.00;96415.84;5037486;28;20108;-79
2022/06/13 02:53:02;;;;;;;9.02;4.13;;;;;;;14.83;100.00;96410.91;5023930;28;20038;-79
2022/06/13 02:55:40;;;;;;;7.23;2.87;;;;;;;14.72;100.00;96414.81;5043650;28;20108;-80
2022/06/13 02:58:37;;;;;;;8.07;3.17;;;;;;;14.74;100.00;96428.69;5041417;28;20044;-80
2022/06/13 03:01:19;;;;;;;7.20;3.80;;;;;;;14.79;100.00;96421.03;5012705;28;20117;-80
2022/06/13 03:04:15;;;;;;;5.93;3.70;;;;;;;14.74;100.00;96423.41;5021979;28;20087;-80
2022/06/13 03:07:18;;;;;;;9.30;3.33;;;;;;;14.75;100.00;96421.56;5042115;28;20065;-80
2022/06/13 03:10:00;;;;;;;4.78;3.00;;;;;;;14.64;100.00;96414.88;5033291;28;20034;-79
2022/06/13 03:12:33;;;;;;;5.63;3.67;;;;;;;14.58;100.00;96423.53;5032801;28;20045;-79
2022/06/13 03:15:02;;;;;;;5.57;3.40;;;;;;;14.63;100.00;96415.91;5025720;28;20060;-81
2022/06/13 03:17:52;;;;;;;8.63;3.60;;;;;;;14.63;100.00;96409.78;5036002;28;20028;-79
2022/06/13 03:20:21;;;;;;;7.43;3.50;;;;;;;14.62;100.00;96406.31;5017811;28;20418;-80
2022/06/13 03:23:05;;;;;;;5.17;3.27;;;;;;;14.61;100.00;96417.91;5023419;28;20038;-79
2022/06/13 03:25:39;;;;;;;7.10;4.17;;;;;;;14.69;100.00;96412.53;5038763;28;20089;-80
2022/06/13 03:28:19;;;;;;;6.37;3.80;;;;;;;14.71;100.00;96407.88;5022111;28;20044;-79
2022/06/13 03:30:52;;;;;;;7.43;3.83;;;;;;;14.61;100.00;96408.13;5009312;28;20044;-79
2022/06/13 03:33:40;;;;;;;10.73;3.80;;;;;;;14.62;100.00;96411.63;5021923;28;20033;-80
2022/06/13 03:36:36;;;;;;;7.87;4.10;;;;;;;14.58;100.00;96411.13;5022871;28;20037;-80
2022/06/13 03:39:16;;;;;;;6.77;4.27;;;;;;;14.57;100.00;96413.97;5031580;28;20045;-80
2022/06/13 03:41:53;;;;;;;6.97;3.90;;;;;;;14.57;100.00;96420.06;5036526;28;20072;-80
2022/06/13 03:44:44;;;;;;;7.77;4.47;;;;;;;14.50;100.00;96423.59;5027855;28;20505;-80
2022/06/13 03:47:52;;;;;;;7.27;4.57;;;;;;;14.55;100.00;96419.44;5017941;28;20049;-80
2022/06/13 03:50:17;;;;;;;6.63;4.10;;;;;;;14.60;100.00;96417.06;5015538;28;20044;-79
2022/06/13 03:52:48;;;;;;;6.50;4.60;;;;;;;14.58;100.00;96419.06;5032675;28;20117;-80
2022/06/13 03:55:26;;;;;;;7.97;4.30;;;;;;;14.64;100.00;96427.31;5016105;28;20076;-80
2022/06/13 03:57:58;;;;;;;8.90;5.07;;;;;;;14.64;100.00;96425.47;5016923;28;20041;-80
2022/06/13 04:00:35;;;;;;;6.73;4.27;;;;;;;14.75;100.00;96425.03;5026090;28;20037;-80
2022/06/13 04:03:01;;;;;;;7.57;4.40;;;;;;;14.77;100.00;96419.56;5018540;28;20553;-80
2022/06/13 04:05:56;;;;;;;6.10;4.23;;;;;;;14.79;100.00;96425.53;5030729;28;20407;-80
2022/06/13 04:08:22;;;;;;;7.13;3.97;;;;;;;14.88;100.00;96428.88;5036620;28;20038;-80
2022/06/13 04:11:22;;;;;;;6.63;3.70;;;;;;;14.83;100.00;96427.63;5021424;28;20068;-79
2022/06/13 04:14:04;;;;;;;6.23;3.60;;;;;;;14.94;100.00;96428.97;5011711;28;20060;-80
2022/06/13 04:16:33;;;;;;;7.50;3.97;;;;;;;14.83;100.00;96427.63;5015114;28;20030;-82
2022/06/13 04:19:08;;;;;;;8.23;4.23;;;;;;;14.87;100.00;96420.13;5015967;28;20036;-80
2022/06/13 04:21:47;;;;;;;6.07;4.00;;;;;;;15.05;100.00;96425.06;5030849;28;20134;-80
2022/06/13 04:24:46;;;;;;;6.40;4.10;;;;;;;15.07;100.00;96423.06;5034849;28;20488;-80
2022/06/13 04:27:37;;;;;;;9.20;4.40;;;;;;;15.10;100.00;96422.69;5000163;28;20041;-80
2022/06/13 04:30:14;;;;;;;6.93;4.03;;;;;;;15.14;100.00;96417.84;5019608;28;20044;-81
2022/06/13 04:32:50;;;;;;;6.30;3.63;;;;;;;15.18;100.00;96419.94;5026576;28;20039;-80
2022/06/13 04:35:18;;;;;;;8.97;4.23;;;;;;;15.19;100.00;96420.75;5015884;28;20040;-80
2022/06/13 04:37:45;;;;;;;7.80;4.27;;;;;;;15.21;100.00;96416.94;5018596;28;20034;-80
2022/06/13 04:40:20;;;;;;;6.57;4.20;;;;;;;15.25;100.00;96415.56;4998340;28;20049;-80
2022/06/13 04:42:48;;;;;;;9.43;4.10;;;;;;;15.36;100.00;96416.09;5010657;28;20038;-80
2022/06/13 04:45:25;;;;;;;6.50;4.00;;;;;;;15.44;100.00;96416.00;5020713;28;20060;-80
2022/06/13 04:47:53;;;;;;;6.50;3.67;;;;;;;15.57;100.00;96418.81;5022880;28;20030;-80
2022/06/13 04:50:32;;;;;;;7.80;4.43;;;;;;;15.57;100.00;96413.50;5021302;28;20061;-84
2022/06/13 04:53:01;;;;;;;8.23;4.23;;;;;;;15.63;100.00;96425.22;5026400;28;20045;-80
2022/06/13 04:55:44;;;;;;;7.30;4.10;;;;;;;15.63;100.00;96425.22;5020660;28;20065;-80
2022/06/13 04:58:27;;;;;;;8.93;3.80;;;;;;;15.67;100.00;96429.16;5005828;28;20045;-80
2022/06/13 05:01:30;;;;;;;9.07;4.28;;;;;;;15.74;100.00;96440.66;5014478;28;20034;-80
2022/06/13 05:03:58;;;;;;;7.50;3.90;;;;;;;15.91;100.00;96430.66;5005346;28;20044;-80
2022/06/13 05:06:36;;;;;;;9.00;4.73;;;;;;;15.87;100.00;96434.69;5020488;28;20133;-80
2022/06/13 05:09:08;;;;;;;7.13;4.07;;;;;;;15.84;100.00;96435.88;5016456;28;20092;-80
2022/06/13 05:12:06;;;;;;;10.77;4.13;;;;;;;15.87;100.00;96434.69;5020396;28;20038;-79
2022/06/13 05:14:35;;;;;;;9.73;3.90;;;;;;;16.07;100.00;96441.03;5012689;28;20044;-80
2022/06/13 05:17:24;;;;;;;10.47;4.10;;;;;;;15.90;100.00;96434.31;5031019;28;20460;-80
2022/06/13 05:20:21;;;;;;;8.07;4.30;;;;;;;16.13;100.00;96448.25;5003437;28;20866;-80
2022/06/13 05:23:02;;;;;;;6.78;3.85;;;;;;;16.06;100.00;96449.16;5033078;28;20454;-80
2022/06/13 05:25:46;;;;;;;8.10;4.17;;;;;;;16.05;100.00;96453.66;4999868;28;20663;-82
2022/06/13 05:28:19;;;;;;;5.83;4.13;;;;;;;16.02;100.00;96459.31;5030429;28;20091;-80
2022/06/13 05:30:50;;;;;;;6.50;4.22;;;;;;;16.55;100.00;96454.53;5019137;28;20029;-81
2022/06/13 05:33:21;;;;;;;7.53;4.68;;;;;;;16.55;100.00;96454.53;5032601;28;20452;-81
2022/06/13 05:35:52;;;;;;;8.77;4.28;;;;;;;16.50;100.00;96439.19;5022836;28;20116;-80
2022/06/13 05:38:21;;;;;;;7.53;3.85;;;;;;;16.35;100.00;96442.91;5029546;28;20045;-80
2022/06/13 05:40:46;;;;;;;6.77;4.17;;;;;;;16.39;100.00;96449.47;5015238;28;20026;-80
2022/06/13 05:43:13;;;;;;;9.37;3.20;;;;;;;16.69;100.00;96450.16;4996409;28;20036;-80
2022/06/13 05:45:40;;;;;;;6.83;3.97;;;;;;;16.84;100.00;96444.81;5013703;28;20414;-80
2022/06/13 05:48:13;;;;;;;7.57;3.55;;;;;;;17.10;100.00;96441.47;5014008;28;20033;-80
2022/06/13 05:50:39;;;;;;;6.28;3.28;;;;;;;17.44;100.00;96444.16;5031722;28;20048;-80
2022/06/13 05:53:05;;;;;;;7.07;3.65;;;;;;;17.95;100.00;96437.63;5006888;28;20041;-80
2022/06/13 05:55:31;;;;;;;7.55;3.70;;;;;;;17.61;100.00;96449.94;5017393;28;20040;-79
2022/06/13 05:57:57;;;;;;;9.68;3.90;;;;;;;17.59;100.00;96451.16;5022456;28;20499;-79
2022/06/13 06:00:27;;;;;;;7.38;3.85;;;;;;;17.96;100.00;96444.56;5043239;28;20042;-80
2022/06/13 06:02:53;;;;;;;7.00;3.92;;;;;;;18.17;100.00;96445.44;5011214;28;20030;-80
2022/06/13 06:05:18;;;;;;;7.68;3.65;;;;;;;18.05;100.00;96453.22;5030668;28;20560;-80
2022/06/13 06:07:44;;;;;;;6.57;4.18;;;;;;;18.11;100.00;96450.56;5016817;28;20558;-79
2022/06/13 06:10:18;;;;;;;8.50;4.00;;;;;;;18.07;100.00;96454.63;5012435;28;20494;-80
2022/06/13 06:12:43;;;;;;;8.00;4.00;;;;;;;18.35;100.00;96443.84;5018766;28;20401;-80
2022/06/13 06:15:09;;;;;;;10.43;4.45;;;;;;;18.51;100.00;96452.44;5023697;28;20040;-80
2022/06/13 06:17:35;;;;;;;5.85;3.90;;;;;;;18.75;100.00;96456.41;5023023;28;20049;-80
2022/06/13 06:20:01;;;;;;;7.55;3.90;;;;;;;19.17;100.00;96459.63;5014999;28;20439;-80
2022/06/13 06:22:26;;;;;;;6.70;4.00;;;;;;;18.82;100.00;96466.03;4998571;28;20029;-80
2022/06/13 06:24:52;;;;;;;9.88;4.18;;;;;;;18.80;100.00;96459.25;5015512;28;21046;-80
2022/06/13 06:27:18;;;;;;;6.68;3.97;;;;;;;19.07;100.00;96458.22;5021473;28;20030;-80
2022/06/13 06:29:43;;;;;;;8.05;3.80;;;;;;;19.56;100.00;96461.41;5031962;28;20041;-80
2022/06/13 06:32:10;;;;;;;6.35;3.80;;;;;;;19.11;100.00;96469.28;5017966;28;20042;-80
2022/06/13 06:34:36;;;;;;;8.85;3.78;;;;;;;19.14;100.00;96481.38;5035766;28;20427;-80
2022/06/13 06:37:01;;;;;;;8.60;3.95;;;;;;;18.75;100.00;96477.72;5014325;28;20123;-80
2022/06/13 06:39:27;;;;;;;7.72;3.80;;;;;;;19.14;100.00;96482.19;5036892;28;20080;-80
2022/06/13 06:41:53;;;;;;;9.45;4.60;;;;;;;19.71;100.00;96477.19;5023002;28;20030;-80
2022/06/13 06:44:19;;;;;;;8.07;3.00;;;;;;;19.30;100.00;96488.94;5035466;28;20037;-79
2022/06/13 06:46:44;;;;;;;6.88;3.35;;;;;;;19.80;100.00;96473.25;5041970;28;20135;-79
2022/06/13 06:49:10;;;;;;;8.25;3.25;;;;;;;20.18;100.00;96478.59;5016651;28;20109;-80
2022/06/13 06:51:36;;;;;;;5.22;2.60;;;;;;;20.98;100.00;96471.94;5024485;28;20060;-80
2022/06/13 07:02:15;;;;;;;7.78;2.60;;;;;;;21.93;91.36;96464.38;5029968;28;20042;-81
2022/06/13 07:04:41;;;;;;;8.50;2.67;;;;;;;21.76;91.85;96469.50;5012716;28;20133;-80
2022/06/13 07:07:06;;;;;;;7.38;2.08;;;;;;;22.27;90.67;96465.63;5013755;28;20041;-81
2022/06/13 07:09:32;;;;;;;7.38;2.15;;;;;;;22.72;85.36;96473.19;5019703;28;20038;-80
2022/06/13 07:11:58;;;;;;;5.93;2.20;;;;;;;21.55;87.81;96467.28;5003550;28;20166;-81
2022/06/13 07:14:27;;;;;;;7.57;2.78;;;;;;;21.68;85.75;96477.03;5020804;28;20037;-80
2022/06/13 07:16:53;;;;;;;8.43;2.58;;;;;;;21.66;87.57;96479.91;5013799;28;20060;-80
2022/06/13 07:19:19;;;;;;;6.13;2.45;;;;;;;22.34;82.15;96486.97;5016027;28;20041;-81
2022/06/13 07:21:45;;;;;;;5.53;2.28;;;;;;;21.74;89.80;96482.31;5014722;28;20026;-80
2022/06/13 07:24:12;;;;;;;7.15;2.25;;;;;;;22.21;79.69;96489.81;5014818;28;20116;-81
2022/06/13 07:26:38;;;;;;;8.25;2.28;;;;;;;22.51;75.21;96487.13;5015334;28;20045;-81
2022/06/13 07:29:05;;;;;;;6.00;2.33;;;;;;;22.73;73.97;96490.09;5000223;28;20029;-80
2022/06/13 07:31:44;;;;;;;6.65;2.35;;;;;;;22.96;70.74;96489.34;5029035;28;20030;-80
2022/06/13 07:34:14;;;;;;;7.05;2.50;;;;;;;22.77;73.08;96493.94;5014218;28;20060;-81
2022/06/13 07:36:42;;;;;;;9.45;1.98;;;;;;;22.83;73.70;96498.38;5014495;28;20065;-81
2022/06/13 07:39:08;;;;;;;16.20;8.75;;;;;;;23.66;68.39;96505.47;5018483;28;20072;-81
2022/06/13 07:41:35;;;;;;;6.93;3.10;;;;;;;23.24;67.77;96500.25;5017374;28;20554;-81
2022/06/13 07:44:01;;;;;;;10.48;5.85;;;;;;;23.29;65.65;96497.66;5022606;28;20034;-81
2022/06/13 07:46:29;;;;;;;9.10;2.60;;;;;;;22.87;69.53;96509.47;5027544;28;20449;-81
2022/06/13 07:48:55;;;;;;;7.88;2.40;;;;;;;22.65;73.02;96499.28;5010168;28;20487;-81
2022/06/13 07:51:22;;;;;;;7.90;2.22;;;;;;;23.37;68.72;96501.84;5031201;28;20097;-81
2022/06/13 07:53:48;;;;;;;8.50;1.95;;;;;;;23.66;67.36;96499.28;5023425;28;20045;-81
2022/06/13 07:56:16;;;;;;;7.40;2.50;;;;;;;23.35;68.45;96503.97;5015632;28;20391;-81
2022/06/13 07:58:44;;;;;;;5.88;2.33;;;;;;;23.48;61.05;96502.91;5027734;28;20071;-81
2022/06/13 08:01:11;;;;;;;8.10;2.53;;;;;;;23.87;57.76;96509.41;5016647;28;20038;-81
2022/06/13 08:03:37;;;;;;;7.10;2.30;;;;;;;24.11;56.79;96520.94;5016106;28;20052;-81
2022/06/13 08:06:04;;;;;;;6.45;2.40;;;;;;;24.30;57.01;96516.19;5038862;28;20396;-81
2022/06/13 08:08:31;;;;;;;7.30;2.30;;;;;;;24.11;57.41;96523.63;5017912;28;20022;-81
2022/06/13 08:11:02;;;;;;;6.13;2.28;;;;;;;23.79;59.74;96523.22;5028822;28;20064;-81
2022/06/13 08:13:29;;;;;;;17.80;11.77;;;;;;;25.43;55.94;96520.91;5037461;28;20025;-80
2022/06/13 08:15:56;;;;;;;10.32;6.43;;;;;;;25.29;52.83;96513.16;5025108;28;20038;-81
2022/06/13 08:18:23;;;;;;;7.30;2.47;;;;;;;25.11;51.34;96516.03;5023415;28;20070;-81
2022/06/13 08:20:50;;;;;;;6.05;2.15;;;;;;;24.74;53.62;96521.06;5036550;28;20443;-80
2022/06/13 08:23:18;;;;;;;6.28;2.35;;;;;;;25.41;51.99;96515.75;5013682;28;21338;-81
2022/06/13 08:25:44;;;;;;;8.07;2.20;;;;;;;24.62;51.11;96530.03;5031748;28;20030;-82
2022/06/13 08:28:11;;;;;;;9.10;2.70;;;;;;;24.81;50.37;96522.53;4995851;28;20029;-82
2022/06/13 08:30:52;;;;;;;6.88;2.33;;;;;;;24.21;52.30;96531.91;5014376;28;20038;-81
2022/06/13 08:33:19;;;;;;;9.05;2.97;;;;;;;24.40;53.38;96532.56;5015738;28;20489;-81
2022/06/13 08:35:45;;;;;;;9.70;2.33;;;;;;;24.83;54.21;96525.81;5027990;28;20121;-81
2022/06/13 08:38:12;;;;;;;9.05;2.28;;;;;;;25.00;52.26;96541.97;4998123;28;20038;-82
2022/06/13 08:40:50;;;;;;;7.10;2.33;;;;;;;24.51;50.83;96530.88;5015061;28;20100;-81
2022/06/13 08:43:35;;;;;;;8.00;3.53;;;;;;;25.30;49.58;96530.13;5031200;28;20108;-81
2022/06/13 08:46:21;;;;;;;16.65;11.68;;;;;;;24.27;49.10;96534.69;5013221;28;20045;-80
2022/06/13 08:48:57;;;;;;;6.93;2.13;;;;;;;24.86;48.94;96543.34;4994467;28;20038;-81
2022/06/13 08:51:37;;;;;;;7.53;2.47;;;;;;;24.69;47.65;96551.38;5012557;28;20029;-83
2022/06/13 08:54:07;;;;;;;6.22;2.53;;;;;;;26.58;44.43;96534.53;5014630;28;20046;-82
2022/06/13 08:56:36;;;;;;;17.67;13.05;;;;;;;24.44;49.68;96549.00;4999380;28;20087;-82
2022/06/13 08:59:23;;;;;;;10.23;3.97;;;;;;;26.15;44.60;96536.16;5013096;28;20060;-82
2022/06/13 09:02:01;;;;;;;7.30;2.55;;;;;;;26.04;47.30;96536.03;5012915;28;20079;-82
2022/06/13 09:04:35;;;;;;;6.60;2.15;;;;;;;24.33;53.62;96556.03;5011276;28;20041;-83
2022/06/13 09:07:09;;;;;;;6.63;2.35;;;;;;;23.43;55.34;96559.16;5009502;28;20092;-82
2022/06/13 09:09:51;;;;;;;10.18;2.33;;;;;;;25.76;51.77;96546.97;5028164;28;20108;-83
2022/06/13 09:12:42;;;;;;;6.97;2.25;;;;;;;25.55;48.54;96549.38;5027488;28;20475;-82
2022/06/13 09:15:12;;;;;;;6.80;2.53;;;;;;;25.14;48.83;96564.03;5024976;28;20037;-81
2022/06/13 09:17:41;;;;;;;7.95;2.15;;;;;;;25.21;48.48;96558.50;5003420;28;20033;-81
2022/06/13 09:20:16;;;;;;;9.30;2.35;;;;;;;24.29;47.62;96564.81;4986994;28;20049;-80
2022/06/13 09:23:10;;;;;;;7.47;2.33;;;;;;;24.38;48.44;96563.38;5004007;28;20041;-78
2022/06/13 09:25:49;;;;;;;7.97;2.03;;;;;;;24.35;48.09;96561.19;5019383;28;21458;-82
2022/06/13 09:28:28;;;;;;;12.43;2.60;;;;;;;24.01;46.55;96555.66;5005631;28;20061;-79
2022/06/13 09:31:03;;;;;;;7.65;2.53;;;;;;;25.52;45.67;96566.00;5006376;28;20037;-82
2022/06/13 09:33:32;;;;;;;9.45;2.15;;;;;;;25.83;43.20;96558.41;5004954;28;20034;-79
2022/06/13 09:36:03;;;;;;;7.55;2.45;;;;;;;25.32;42.95;96561.13;5022747;28;20033;-80
2022/06/13 09:38:39;;;;;;;6.75;2.33;;;;;;;25.78;42.04;96555.59;5007180;28;20123;-79
2022/06/13 09:41:38;;;;;;;7.30;2.03;;;;;;;26.23;41.21;96557.31;5005591;28;20172;-80
2022/06/13 09:44:10;;;;;;;15.85;3.83;;;;;;;27.90;41.03;96549.19;5005149;28;20046;-79
2022/06/13 09:47:05;;;;;;;8.93;2.33;;;;;;;25.12;43.19;96572.38;5024870;28;20037;-81
2022/06/13 09:49:40;;;;;;;6.07;2.13;;;;;;;24.85;44.80;96574.00;5007335;28;20076;-81
2022/06/13 09:52:26;;;;;;;6.40;2.28;;;;;;;24.19;47.12;96568.13;5019201;28;20030;-81
2022/06/13 09:55:12;;;;;;;7.13;1.95;;;;;;;24.74;45.68;96572.16;5014720;28;20110;-81
2022/06/13 09:58:15;;;;;;;6.53;2.20;;;;;;;24.80;41.18;96565.84;5011795;28;20026;-81
2022/06/13 10:00:49;;;;;;;7.70;2.55;;;;;;;24.50;44.65;96571.44;5016665;28;20105;-82
2022/06/13 10:03:18;;;;;;;10.38;2.47;;;;;;;24.08;45.98;96561.72;5014644;28;20072;-82
2022/06/13 10:06:29;;;;;;;7.10;2.17;;;;;;;25.30;43.39;96567.81;5020372;28;20026;-80
2022/06/13 10:08:57;;;;;;;7.82;2.60;;;;;;;24.37;43.99;96564.44;5020711;28;20045;-83
2022/06/13 10:11:52;;;;;;;8.57;2.03;;;;;;;23.76;46.67;96570.16;5041339;28;20422;-81
2022/06/13 10:14:34;;;;;;;8.38;2.70;;;;;;;25.15;43.15;96566.50;5036263;28;20381;-80
2022/06/13 10:17:24;;;;;;;5.15;1.90;;;;;;;23.44;42.20;96571.50;5026990;28;20487;-81
2022/06/13 10:20:17;;;;;;;5.10;1.63;;;;;;;25.00;40.62;96568.06;5019094;28;20448;-81
2022/06/13 10:23:07;;;;;;;5.53;1.80;;;;;;;25.43;40.07;96562.09;5030824;28;20108;-82
2022/06/13 10:25:52;;;;;;;6.03;1.77;;;;;;;25.77;40.52;96559.34;5018540;28;20128;-82
2022/06/13 10:28:55;;;;;;;6.13;2.00;;;;;;;25.57;38.75;96568.75;5034414;28;20034;-82
2022/06/13 10:31:29;;;;;;;4.85;1.67;;;;;;;26.02;37.05;96565.13;5013513;28;20033;-82
2022/06/13 10:34:13;;;;;;;5.60;1.70;;;;;;;26.22;36.07;96571.84;5036193;28;20098;-82
2022/06/13 10:36:54;;;;;;;3.45;1.38;;;;;;;24.73;36.93;96573.22;5039267;28;20037;-82
2022/06/13 10:39:23;;;;;;;6.03;1.80;;;;;;;24.12;37.43;96572.81;5023613;28;20033;-78
2022/06/13 10:41:53;;;;;;;9.05;4.85;;;;;;;23.85;39.40;96575.19;5005346;28;20797;-79
2022/06/13 10:44:19;;;;;;;14.02;9.57;;;;;;;24.82;38.89;96571.78;5016024;28;20041;-79
2022/06/13 10:46:50;;;;;;;5.18;1.58;;;;;;;24.78;38.50;96576.00;5008210;28;20100;-78
2022/06/13 10:49:31;;;;;;;8.13;2.30;;;;;;;23.36;40.16;96575.38;5006494;28;20033;-79
2022/06/13 10:52:02;;;;;;;4.72;1.58;;;;;;;23.03;40.63;96570.53;5022313;28;20026;-78
2022/06/13 10:54:42;;;;;;;4.32;1.30;;;;;;;24.33;37.93;96569.47;5013556;28;20045;-79
2022/06/13 10:57:20;;;;;;;5.75;1.75;;;;;;;24.74;38.65;96572.97;5021259;28;20090;-79
2022/06/13 11:00:20;;;;;;;6.78;1.88;;;;;;;23.06;41.69;96581.59;5004304;28;20104;-79
2022/06/13 11:02:47;;;;;;;6.35;1.77;;;;;;;23.22;40.57;96580.13;5014186;28;20033;-78
2022/06/13 11:05:20;;;;;;;5.43;1.70;;;;;;;24.40;39.09;96580.09;5018314;28;20022;-78
2022/06/13 11:07:49;;;;;;;4.05;1.65;;;;;;;23.78;39.55;96577.19;5031663;28;20030;-78
2022/06/13 11:10:26;;;;;;;7.13;1.58;;;;;;;25.08;39.31;96575.72;5016259;28;20034;-79
2022/06/13 11:12:53;;;;;;;6.15;1.80;;;;;;;24.17;39.67;96572.91;5017027;28;20534;-80
2022/06/13 11:23:55;;;;;;;6.50;1.90;;;;;;;25.59;38.78;96580.13;5024600;28;20100;-81
2022/06/13 11:29:16;;;;;;;4.40;1.95;;;;;;;25.64;37.73;96572.09;5009137;28;20042;-80
2022/06/13 11:31:57;;;;;;;5.00;1.75;;;;;;;25.75;37.84;96580.31;5031696;28;20071;-80
2022/06/13 11:34:32;;;;;;;5.90;1.60;;;;;;;27.08;35.08;96576.59;5021077;28;20034;-80
2022/06/13 11:37:03;;;;;;;6.25;2.05;;;;;;;26.29;36.64;96576.00;5033031;28;20396;-81
2022/06/13 11:39:36;;;;;;;4.97;1.40;;;;;;;26.46;34.00;96581.31;5019934;28;20701;-80
2022/06/13 11:42:03;;;;;;;5.78;1.60;;;;;;;25.82;35.46;96581.00;5034673;28;20034;-81
2022/06/13 11:44:30;;;;;;;5.28;1.58;;;;;;;25.16;37.33;96586.16;5016787;28;20044;-80
2022/06/13 11:47:03;;;;;;;6.38;2.00;;;;;;;24.52;38.67;96591.66;5015573;28;20046;-81
2022/06/13 11:49:36;;;;;;;5.30;1.60;;;;;;;24.33;38.26;96590.97;5015802;28;20026;-80
2022/06/13 11:52:11;;;;;;;5.90;1.88;;;;;;;23.69;37.51;96593.63;5015874;28;20033;-80
2022/06/13 11:54:51;;;;;;;4.65;1.35;;;;;;;24.80;34.59;96596.22;5012337;28;20400;-80
2022/06/13 11:57:38;;;;;;;5.65;1.50;;;;;;;23.23;35.67;96600.53;5012967;28;20064;-81
2022/06/13 12:00:08;;;;;;;5.55;1.60;;;;;;;23.64;35.06;96585.44;5003496;28;20041;-81
2022/06/13 12:02:54;;;;;;;3.47;1.35;;;;;;;24.21;37.44;96582.97;5023827;28;20041;-81
2022/06/13 12:05:28;;;;;;;5.78;2.78;;;;;;;24.19;36.93;96585.06;5024038;28;20045;-80
2022/06/13 12:08:00;;;;;;;5.25;2.28;;;;;;;24.90;35.07;96584.84;5036196;28;20045;-80
2022/06/13 12:10:33;;;;;;;6.90;1.95;;;;;;;25.62;35.26;96587.72;5013995;28;20053;-79
2022/06/13 12:12:59;;;;;;;3.38;1.58;;;;;;;25.76;33.02;96582.78;5043225;28;20049;-80
2022/06/13 12:15:35;;;;;;;4.30;1.50;;;;;;;24.98;33.17;96586.31;5035796;28;20034;-79
2022/06/13 12:18:24;;;;;;;5.32;1.50;;;;;;;26.46;33.34;96578.63;5001624;28;20465;-80
2022/06/13 12:21:13;;;;;;;6.03;1.90;;;;;;;24.60;33.79;96583.22;5019028;28;20399;-80
2022/06/13 12:23:39;;;;;;;6.10;1.50;;;;;;;24.80;34.51;96592.72;5035304;28;20034;-80
2022/06/13 12:26:27;;;;;;;4.90;1.67;;;;;;;25.44;35.66;96585.25;5034293;28;20506;-79
2022/06/13 12:29:30;;;;;;;6.40;2.75;;;;;;;24.97;35.28;96590.88;5021507;28;20546;-79